< < Back
Terminal Aerodrome Forecast


Current Version              Previous Versions:   1  2  3  4  5  6  7  8  9  

Terminal Aerodrome Forecast

957
FTUS42 KJAX 210500
TAFSSI
TAF
KSSI 210521Z 2106/2206 19004KT P6SM SCT035 BKN250
      TEMPO 2108/2112 BKN025
     FM211500 31006KT P6SM SCT250
     FM220000 VRB04KT P6SM SKC=



Latest METAR

263
SAUS70 KWBC 211000 RRJ
MTRSSI
METAR KSSI 210953Z AUTO 32003KT 10SM CLR 17/17 A2995 RMK AO2 SLP140
T01720172


USA.gov is the U.S. government's official web portal to all federal, state and local government web resources and services.